createdAt,value
2022-11-29T13:08:09.836Z,76.01
2022-11-29T14:38:48.121Z,76.10
2022-11-29T14:42:17.465Z,75.93
2022-11-29T14:45:51.308Z,76.31
2022-11-29T14:48:53.976Z,76.19
2022-11-29T14:52:15.830Z,76.14
2022-11-29T14:55:23.134Z,75.86
2022-11-29T14:58:22.884Z,76.21
2022-11-29T15:01:14.869Z,75.66
2022-11-29T15:04:08.253Z,75.69
2022-11-29T15:07:06.871Z,75.67
2022-11-29T15:09:56.970Z,75.69
2022-11-29T15:13:07.302Z,75.98
2022-11-29T15:16:15.484Z,75.83
2022-11-29T15:19:47.408Z,76.09
2022-11-29T15:23:21.069Z,75.65
2022-11-29T15:26:39.006Z,76.16
2022-11-29T15:29:35.305Z,75.94
2022-11-29T15:32:31.140Z,76.04
2022-11-29T15:35:19.058Z,75.83
2022-11-29T15:38:24.744Z,76.42
2022-11-29T15:41:34.351Z,76.41
2022-11-29T15:44:22.680Z,76.06
2022-11-29T15:47:18.840Z,75.52
2022-11-29T15:50:25.610Z,75.78
2022-11-29T15:53:17.514Z,75.94
2022-11-29T15:56:11.946Z,75.83
2022-11-29T15:59:01.566Z,75.81
2022-11-29T16:01:50.204Z,75.77
2022-11-29T16:04:43.584Z,75.89
2022-11-29T16:07:34.418Z,75.49
2022-11-29T16:10:33.489Z,75.85
2022-11-29T16:13:31.510Z,75.82
2022-11-29T16:16:22.452Z,75.71
2022-11-29T16:19:23.058Z,75.85
2022-11-29T16:22:19.023Z,75.67
2022-11-29T16:25:14.549Z,75.85
2022-11-29T16:28:01.467Z,75.36
2022-11-29T16:30:48.275Z,75.62
2022-11-29T16:33:37.816Z,75.41
2022-11-29T16:36:27.776Z,75.24
2022-11-29T16:39:22.463Z,75.46
2022-11-29T16:42:24.664Z,75.33
2022-11-29T16:45:36.344Z,74.99
2022-11-29T16:48:23.133Z,74.75
2022-11-29T16:51:10.047Z,75.21
2022-11-29T16:54:21.022Z,75.07
2022-11-29T16:57:09.308Z,74.90
2022-11-29T16:59:56.102Z,75.57
2022-11-29T17:02:45.626Z,75.55
2022-11-29T17:05:32.713Z,75.14
2022-11-29T17:08:19.818Z,75.36
2022-11-29T17:11:06.672Z,75.24
2022-11-29T17:13:53.756Z,75.66
2022-11-29T17:16:40.684Z,75.46
2022-11-29T17:19:30.621Z,75.34
2022-11-29T17:22:17.449Z,75.67
2022-11-29T17:25:04.705Z,75.27
2022-11-29T17:27:51.816Z,75.15
2022-11-29T17:30:38.664Z,75.67
2022-11-29T17:33:25.493Z,75.34
2022-11-29T17:36:15.431Z,75.64
2022-11-29T17:39:11.817Z,75.62
2022-11-29T17:45:11.077Z,75.36
2022-11-29T17:48:05.533Z,75.47
2022-11-29T17:51:28.842Z,75.63
2022-11-29T17:54:23.900Z,75.99
2022-11-29T17:57:16.427Z,76.15
2022-11-29T18:00:21.298Z,76.07
2022-11-29T18:03:11.004Z,75.76
2022-11-29T18:06:06.188Z,75.75
2022-11-29T18:08:55.428Z,76.30
2022-11-29T18:11:48.725Z,77.26
2022-11-29T18:14:40.911Z,78.00
2022-11-29T18:17:27.942Z,78.04
2022-11-29T18:20:15.057Z,78.58
2022-11-29T18:23:07.671Z,78.68
2022-11-29T18:26:09.420Z,78.81
2022-11-29T18:28:57.831Z,79.06
2022-11-29T18:31:47.806Z,78.92
2022-11-29T18:34:37.246Z,78.55
2022-11-29T18:38:05.109Z,78.67
2022-11-29T18:41:15.870Z,77.81
2022-11-29T18:44:12.292Z,78.28
2022-11-29T18:46:59.781Z,77.89
2022-11-29T18:49:48.229Z,78.37
2022-11-29T18:52:44.001Z,77.96
2022-11-29T18:55:31.168Z,77.85
2022-11-29T18:58:20.817Z,77.43
2022-11-29T19:01:16.891Z,77.34
2022-11-29T19:04:11.462Z,77.36
2022-11-29T19:06:59.500Z,77.25
2022-11-29T19:09:48.706Z,77.48
2022-11-29T19:12:37.525Z,76.89
2022-11-29T19:15:27.303Z,77.21
2022-11-29T19:18:21.204Z,77.28
2022-11-29T19:21:10.998Z,77.37
2022-11-29T19:24:00.819Z,77.19
2022-11-29T19:26:50.493Z,76.87
2022-11-29T19:29:39.956Z,77.27
2022-11-29T19:32:27.103Z,76.84
2022-11-29T19:35:19.832Z,76.65
2022-11-29T19:38:09.578Z,76.99
2022-11-29T19:40:56.490Z,77.02
2022-11-29T19:43:45.313Z,76.64
2022-11-29T19:46:36.065Z,76.61
2022-11-29T19:49:23.103Z,76.83
2022-11-29T19:52:12.302Z,76.72
2022-11-29T19:55:02.686Z,76.93
2022-11-29T20:01:11.929Z,76.94
2022-11-29T20:04:02.905Z,76.90
2022-11-29T20:06:53.272Z,76.35
2022-11-29T20:09:40.272Z,76.48
2022-11-29T20:12:27.312Z,76.02
2022-11-29T20:15:15.526Z,76.45
2022-11-29T20:18:13.023Z,76.56
2022-11-29T20:21:23.693Z,76.32
2022-11-29T20:24:43.923Z,76.21
2022-11-29T20:27:25.191Z,76.12
2022-11-29T20:30:12.951Z,76.35
2022-11-29T20:33:02.449Z,76.51
2022-11-29T20:36:16.857Z,76.17
2022-11-29T20:39:40.544Z,76.65
2022-11-29T20:42:39.729Z,76.05
2022-11-29T20:45:26.923Z,76.05
2022-11-29T20:49:23.405Z,76.53
2022-11-29T20:52:02.117Z,76.53
2022-11-29T20:54:51.107Z,76.26
2022-11-29T20:58:01.106Z,76.08
2022-11-29T21:00:50.805Z,76.28
2022-11-29T21:03:40.896Z,76.44
2022-11-29T21:06:29.183Z,76.41
2022-11-29T21:09:20.785Z,76.22
2022-11-29T21:12:08.328Z,76.19
2022-11-29T21:14:55.409Z,76.39
2022-11-29T21:17:43.103Z,76.53
2022-11-29T21:20:32.906Z,76.62
2022-11-29T21:23:48.923Z,76.23
2022-11-29T21:26:50.171Z,76.21
2022-11-29T21:29:37.347Z,76.30
2022-11-29T21:32:29.313Z,76.69
2022-11-29T21:35:16.951Z,76.44
2022-11-29T21:38:03.800Z,76.54
2022-11-29T21:40:52.541Z,76.13
2022-11-29T21:44:05.618Z,76.68
2022-11-29T21:46:48.468Z,76.78
2022-11-29T21:49:38.097Z,76.56
2022-11-29T21:52:29.349Z,76.21
2022-11-29T21:55:16.465Z,76.52
2022-11-29T21:58:03.360Z,76.40
2022-11-29T22:00:50.284Z,76.80
2022-11-29T22:03:37.843Z,76.34
2022-11-29T22:06:31.963Z,76.71
2022-11-29T22:09:18.819Z,76.56
2022-11-29T22:12:25.860Z,76.93
2022-11-29T22:15:13.992Z,77.00
2022-11-29T22:18:00.829Z,76.44
2022-11-29T22:20:47.808Z,76.47
2022-11-29T22:23:34.635Z,76.98
2022-11-29T22:26:30.019Z,76.71
2022-11-29T22:29:17.349Z,76.79
2022-11-29T22:32:04.468Z,76.51
2022-11-29T22:34:51.336Z,76.81
2022-11-29T22:37:43.634Z,77.02
2022-11-29T22:40:31.871Z,76.71
2022-11-29T22:43:18.671Z,76.45
2022-11-29T22:49:21.205Z,76.51
2022-11-29T22:52:11.074Z,76.56
2022-11-29T22:55:04.750Z,76.80
2022-11-29T22:57:53.339Z,76.61
2022-11-29T23:00:44.164Z,76.92
2022-11-29T23:03:38.963Z,76.75
2022-11-29T23:06:31.314Z,77.04
2022-11-29T23:09:21.719Z,76.49
2022-11-29T23:12:08.688Z,76.37
2022-11-29T23:14:56.826Z,76.75
2022-11-29T23:17:43.983Z,76.65
2022-11-29T23:20:30.737Z,76.67
2022-11-29T23:23:17.525Z,76.49
2022-11-29T23:26:08.347Z,76.61
2022-11-29T23:28:58.379Z,76.41
2022-11-29T23:31:46.609Z,76.57
2022-11-29T23:34:33.902Z,76.99
2022-11-29T23:37:23.005Z,76.46
2022-11-29T23:40:10.282Z,76.86
2022-11-29T23:42:58.749Z,77.03
2022-11-29T23:45:45.689Z,76.80
2022-11-29T23:48:32.861Z,76.54
2022-11-29T23:51:21.001Z,76.85
2022-11-29T23:54:08.053Z,76.78
2022-11-29T23:56:54.860Z,77.07
2022-11-29T23:59:41.653Z,76.72
